Flight Track Log - Related Links

Times and Time Zones

All times are in EDT time to prevent confusion due to time zone crossing. See the LBQ792 flight status page for this flight to view local times or setup timezone preferences in your user account.

Time Position Orientation Groundspeed Altitude Reporting Facility
EDT Latitude Longitude Course Direction KTS MPH feet Rate Location/Type
Fri 02:23:10 AM 39.1500 -76.6167 123° Southeast 141 162 3,000  Level Potomac TRACON
Fri 02:24:10 AM 39.1833 -76.5833 38° Northeast 179 206 4,000 950 Climbing Potomac TRACON
Fri 02:25:10 AM 39.2333 -76.5500 27° Northeast 192 221 4,900 550 Climbing Potomac TRACON
Fri 02:26:10 AM 39.2833 -76.5000 38° Northeast 213 245 5,100 100 Climbing Potomac TRACON
Fri 02:27:10 AM 39.3333 -76.4667 27° Northeast 225 259 5,100 -50 Level Potomac TRACON
Fri 02:28:10 AM 39.3833 -76.4167 38° Northeast 228 262 5,000 -50 Descending Potomac TRACON
Fri 02:29:10 AM 39.4333 -76.3667 38° Northeast 229 264 5,000  Level Potomac TRACON
Fri 02:30:10 AM 39.4833 -76.3167 38° Northeast 229 264 5,000  Level Potomac TRACON
Fri 02:31:10 AM 39.5333 -76.2667 38° Northeast 229 264 5,000  Level Potomac TRACON
Fri 02:32:10 AM 39.5833 -76.2167 38° Northeast 231 266 5,000  Level Potomac TRACON
Fri 02:33:10 AM 39.6333 -76.1667 38° Northeast 230 265 5,000  Level Potomac TRACON
Fri 02:34:56 AM 39.7333 -76.0667 38° Northeast 231 266 5,000  Level Philadelphia TRACON
Fri 02:35:56 AM 39.7833 -76.0167 38° Northeast 234 269 5,000  Level Philadelphia TRACON
Fri 02:36:56 AM 39.8333 -75.9667 38° Northeast 233 268 5,000  Level Philadelphia TRACON
Fri 02:37:56 AM 39.8833 -75.9167 37° Northeast 235 270 5,000 50 Level Philadelphia TRACON
Fri 02:38:56 AM 39.9333 -75.8667 37° Northeast 234 269 5,100 -400 Climbing Philadelphia TRACON
Fri 02:39:56 AM 39.9833 -75.8167 37° Northeast 241 277 4,200 -900 Descending Philadelphia TRACON
Fri 02:41:00 AM 40.0322 -75.7672 17° North  Level Estimated
Fri 02:48:00 AM 40.2333 -75.5500 11° North  Level FlightAware Approximate
Fri 02:49:00 AM 40.2396 -75.5567 11° North  Level Estimated
Fri 02:50:00 AM 40.2396 -75.5567 11° North  Level Estimated

Login

Don't have an account? Register now (free) for customized features, flight alerts, and more!